Time;durP1;ratioP1;P1;durP2;ratioP2;P2;SDS_P1;SDS_P2;PMS_P1;PMS_P2;Temp;Humidity;BMP_temperature;BMP_pressure;BME280_temperature;BME280_humidity;BME280_pressure;Samples;Min_cycle;Max_cycle;Signal;HPM_P1;HPM_P2
2024/03/08 00:01:35;;;;;;;24.75;17.35;;;5.90;99.90;;;;;;5050616;28;20514;-50
2024/03/08 00:04:01;;;;;;;30.50;17.13;;;5.80;99.90;;;;;;5050576;28;20099;-50
2024/03/08 00:06:26;;;;;;;26.23;16.52;;;5.70;99.90;;;;;;5050326;28;20100;-50
2024/03/08 00:08:52;;;;;;;27.73;17.23;;;5.70;99.90;;;;;;5050691;28;20021;-51
2024/03/08 00:11:17;;;;;;;22.77;17.02;;;5.60;99.90;;;;;;5050619;28;20079;-47
2024/03/08 00:13:44;;;;;;;31.48;19.05;;;5.60;99.90;;;;;;5050428;28;20029;-49
2024/03/08 00:16:10;;;;;;;30.67;19.10;;;5.60;99.90;;;;;;5050476;28;20029;-51
2024/03/08 00:18:36;;;;;;;27.00;16.60;;;5.50;99.90;;;;;;5048837;28;20512;-48
2024/03/08 00:21:01;;;;;;;28.15;16.70;;;5.40;99.90;;;;;;5050312;28;20494;-53
2024/03/08 00:23:28;;;;;;;28.17;15.93;;;5.50;99.90;;;;;;5050203;28;20447;-49
2024/03/08 00:25:54;;;;;;;29.50;18.75;;;5.40;99.90;;;;;;5050521;28;20025;-50
2024/03/08 00:28:20;;;;;;;23.70;16.63;;;5.30;99.90;;;;;;5050295;28;20508;-53
2024/03/08 00:30:46;;;;;;;27.52;17.13;;;5.30;99.90;;;;;;5050370;28;20025;-52
2024/03/08 00:33:12;;;;;;;25.75;16.55;;;5.30;99.90;;;;;;5050535;28;20056;-48
2024/03/08 00:35:37;;;;;;;26.90;17.15;;;5.30;99.90;;;;;;5050299;28;20453;-50
2024/03/08 00:38:03;;;;;;;27.42;16.42;;;5.20;99.90;;;;;;5050286;28;20335;-53
2024/03/08 00:40:28;;;;;;;29.63;16.13;;;5.20;99.90;;;;;;5050586;28;20436;-54
2024/03/08 00:42:54;;;;;;;23.23;15.63;;;5.20;99.90;;;;;;5051534;28;20120;-54
2024/03/08 00:45:19;;;;;;;29.05;17.10;;;5.20;99.90;;;;;;5052368;28;20029;-51
2024/03/08 00:47:45;;;;;;;27.25;16.45;;;5.20;99.90;;;;;;5066651;28;20103;-56
2024/03/08 00:50:11;;;;;;;26.92;16.95;;;5.20;99.90;;;;;;5071237;28;20024;-55
2024/03/08 00:52:37;;;;;;;26.23;17.50;;;5.20;99.90;;;;;;5065952;28;20192;-55
2024/03/08 00:55:03;;;;;;;27.15;17.88;;;5.20;99.90;;;;;;5042039;28;20564;-52
2024/03/08 00:57:28;;;;;;;32.00;17.35;;;5.20;99.90;;;;;;5040980;28;20101;-56
2024/03/08 00:59:54;;;;;;;27.85;16.55;;;5.20;99.90;;;;;;5041160;28;20074;-54
2024/03/08 01:02:21;;;;;;;28.10;16.42;;;5.10;99.90;;;;;;5040352;28;20025;-53
2024/03/08 01:04:47;;;;;;;27.25;16.35;;;5.10;99.90;;;;;;5039204;28;20078;-55
2024/03/08 01:07:12;;;;;;;28.48;17.98;;;5.10;99.90;;;;;;5041775;28;20024;-53
2024/03/08 01:09:38;;;;;;;25.58;16.85;;;5.10;99.90;;;;;;5051730;28;20025;-54
2024/03/08 01:12:03;;;;;;;28.05;17.05;;;5.10;99.90;;;;;;5046274;28;20022;-57
2024/03/08 01:14:30;;;;;;;26.92;17.15;;;5.10;99.90;;;;;;5043163;28;20033;-54
2024/03/08 01:16:56;;;;;;;25.95;16.20;;;5.10;99.90;;;;;;5040368;28;20025;-55
2024/03/08 01:19:21;;;;;;;25.55;17.58;;;5.00;99.90;;;;;;5030990;28;20030;-50
2024/03/08 01:21:47;;;;;;;27.52;17.30;;;5.00;99.90;;;;;;5042334;28;20021;-52
2024/03/08 01:24:12;;;;;;;26.50;17.00;;;5.00;99.90;;;;;;5034083;28;20059;-53
2024/03/08 01:26:38;;;;;;;29.00;16.30;;;5.10;99.90;;;;;;5032261;28;20075;-59
2024/03/08 01:29:04;;;;;;;28.55;17.42;;;5.00;99.90;;;;;;5039256;28;20032;-51
2024/03/08 01:31:32;;;;;;;27.48;17.25;;;5.00;99.90;;;;;;5048174;28;20095;-54
2024/03/08 01:33:58;;;;;;;28.38;17.92;;;4.90;99.90;;;;;;5049140;28;20033;-55
2024/03/08 01:36:24;;;;;;;28.05;16.02;;;4.90;99.90;;;;;;5049961;28;20047;-54
2024/03/08 01:38:50;;;;;;;26.83;17.83;;;5.00;99.90;;;;;;5049365;28;20027;-58
2024/03/08 01:41:17;;;;;;;27.25;17.98;;;4.90;99.90;;;;;;5049802;28;20032;-56
2024/03/08 01:43:43;;;;;;;24.80;16.85;;;4.80;99.90;;;;;;5051348;28;20028;-56
2024/03/08 01:46:11;;;;;;;28.67;18.10;;;4.70;99.90;;;;;;5050575;28;20063;-56
2024/03/08 01:48:37;;;;;;;26.52;17.77;;;4.70;99.90;;;;;;5051749;28;20017;-54
2024/03/08 01:51:02;;;;;;;26.42;16.67;;;4.60;99.90;;;;;;5052115;28;20028;-57
2024/03/08 01:53:30;;;;;;;29.45;17.42;;;4.60;99.90;;;;;;5052312;28;20040;-54
2024/03/08 01:55:57;;;;;;;28.67;17.95;;;4.60;99.90;;;;;;5051556;28;20032;-58
2024/03/08 01:58:23;;;;;;;29.95;17.70;;;4.50;99.90;;;;;;5051455;28;20028;-57
2024/03/08 02:00:49;;;;;;;27.20;17.45;;;4.50;99.90;;;;;;5051406;28;20021;-52
2024/03/08 02:03:16;;;;;;;26.15;17.48;;;4.50;99.90;;;;;;5051377;28;20200;-58
2024/03/08 02:05:41;;;;;;;26.52;16.85;;;4.50;99.90;;;;;;5051506;28;20029;-57
2024/03/08 02:08:12;;;;;;;28.15;17.10;;;4.50;99.90;;;;;;5051483;28;20056;-56
2024/03/08 02:10:38;;;;;;;26.20;16.15;;;4.40;99.90;;;;;;5051894;28;20013;-58
2024/03/08 02:13:04;;;;;;;30.80;17.95;;;4.50;99.90;;;;;;5050271;28;20032;-53
2024/03/08 02:15:56;;;;;;;27.67;18.17;;;4.50;99.90;;;;;;5050013;28;20043;-53
2024/03/08 02:18:23;;;;;;;28.67;17.88;;;4.50;99.90;;;;;;5050895;28;20398;-55
2024/03/08 02:20:56;;;;;;;25.48;17.25;;;4.50;99.90;;;;;;5051526;28;20025;-54
2024/03/08 02:23:23;;;;;;;33.78;17.58;;;4.50;99.90;;;;;;5051116;28;20027;-52
2024/03/08 02:25:49;;;;;;;30.45;15.93;;;4.50;99.90;;;;;;5051244;28;20101;-52
2024/03/08 02:28:15;;;;;;;31.38;18.17;;;4.50;99.90;;;;;;5051091;28;20096;-56
2024/03/08 02:30:41;;;;;;;32.50;17.58;;;4.40;99.90;;;;;;5051079;28;20442;-53
2024/03/08 02:33:09;;;;;;;31.85;18.40;;;4.40;99.90;;;;;;5049943;28;20066;-56
2024/03/08 02:35:35;;;;;;;30.45;18.15;;;4.40;99.90;;;;;;5051128;28;20342;-52
2024/03/08 02:38:01;;;;;;;26.75;16.98;;;4.40;99.90;;;;;;5051026;28;20404;-57
2024/03/08 02:40:26;;;;;;;28.23;17.42;;;4.40;99.90;;;;;;5050838;28;20029;-53
2024/03/08 02:42:52;;;;;;;30.10;16.95;;;4.40;99.90;;;;;;5050943;28;20033;-55
2024/03/08 02:45:18;;;;;;;28.85;17.08;;;4.40;99.90;;;;;;5049697;28;20096;-51
2024/03/08 02:47:43;;;;;;;31.08;18.30;;;4.40;99.90;;;;;;5051079;28;20044;-53
2024/03/08 02:50:09;;;;;;;25.63;17.08;;;4.40;99.90;;;;;;5050629;28;20017;-56
2024/03/08 02:52:37;;;;;;;31.80;18.15;;;4.40;99.90;;;;;;5050981;28;20023;-52
2024/03/08 02:55:06;;;;;;;29.90;19.13;;;4.30;99.90;;;;;;5050914;28;20047;-52
2024/03/08 02:57:31;;;;;;;27.55;17.40;;;4.30;99.90;;;;;;5050903;28;20021;-56
2024/03/08 02:59:59;;;;;;;30.02;18.77;;;4.20;99.90;;;;;;5050998;28;20071;-54
2024/03/08 03:02:26;;;;;;;32.00;18.48;;;4.20;99.90;;;;;;5050999;28;20027;-53
2024/03/08 03:04:52;;;;;;;26.35;16.67;;;4.10;99.90;;;;;;5050936;28;20143;-56
2024/03/08 03:07:17;;;;;;;29.60;17.67;;;4.10;99.90;;;;;;5050003;28;20033;-57
2024/03/08 03:09:43;;;;;;;33.08;19.00;;;4.10;99.90;;;;;;5050801;28;20060;-52
2024/03/08 03:12:08;;;;;;;28.00;16.67;;;4.00;99.90;;;;;;5052340;28;20029;-54
2024/03/08 03:14:38;;;;;;;26.02;16.85;;;4.10;99.90;;;;;;5054080;28;20021;-57
2024/03/08 03:17:04;;;;;;;31.40;19.25;;;4.20;99.90;;;;;;5054779;28;20388;-53
2024/03/08 03:19:30;;;;;;;31.77;18.23;;;4.10;99.90;;;;;;5054323;28;20100;-56
2024/03/08 03:21:55;;;;;;;32.50;17.67;;;4.10;99.90;;;;;;5054212;28;20523;-52
2024/03/08 03:24:21;;;;;;;30.67;18.45;;;4.10;99.90;;;;;;5052968;28;20025;-54
2024/03/08 03:26:48;;;;;;;26.98;17.60;;;4.10;99.90;;;;;;5052963;28;20032;-52
2024/03/08 03:29:15;;;;;;;32.53;18.08;;;4.10;99.90;;;;;;5054351;28;20445;-54
2024/03/08 03:31:40;;;;;;;30.98;17.67;;;4.10;99.90;;;;;;5054242;28;20029;-52
2024/03/08 03:34:08;;;;;;;29.27;18.33;;;4.00;99.90;;;;;;5054087;28;20029;-54
2024/03/08 03:36:35;;;;;;;30.05;19.08;;;3.90;99.90;;;;;;5054147;28;20404;-54
2024/03/08 03:39:12;;;;;;;36.47;18.55;;;3.90;99.90;;;;;;5053652;28;20028;-51
2024/03/08 03:41:38;;;;;;;29.55;18.85;;;3.90;99.90;;;;;;5054230;28;20021;-52
2024/03/08 03:44:05;;;;;;;31.67;19.27;;;3.90;99.90;;;;;;5052557;28;20029;-54
2024/03/08 03:46:30;;;;;;;31.52;18.65;;;3.90;99.90;;;;;;5054056;28;20108;-50
2024/03/08 03:48:56;;;;;;;28.38;18.02;;;3.70;99.90;;;;;;5053783;28;20155;-52
2024/03/08 03:51:21;;;;;;;28.70;18.48;;;3.70;99.90;;;;;;5053918;28;20025;-54
2024/03/08 03:53:47;;;;;;;29.38;17.70;;;3.70;99.90;;;;;;5052173;28;20076;-50
2024/03/08 03:56:13;;;;;;;34.50;17.60;;;3.60;99.90;;;;;;5053623;28;20036;-52
2024/03/08 03:58:39;;;;;;;31.65;20.38;;;3.40;99.90;;;;;;5052213;28;20111;-51
2024/03/08 04:01:05;;;;;;;33.63;18.95;;;3.40;99.90;;;;;;5053786;28;20480;-51
2024/03/08 04:03:31;;;;;;;27.75;17.90;;;3.40;99.90;;;;;;5052350;28;20033;-55
2024/03/08 04:05:56;;;;;;;31.08;18.38;;;3.30;99.90;;;;;;5053554;28;20043;-53
2024/03/08 04:08:23;;;;;;;35.70;20.98;;;3.30;99.90;;;;;;5052094;28;20037;-55
2024/03/08 04:10:49;;;;;;;33.65;18.65;;;3.20;99.90;;;;;;5053825;28;20100;-56
2024/03/08 04:13:15;;;;;;;31.75;18.25;;;3.20;99.90;;;;;;5053373;28;20067;-52
2024/03/08 04:15:43;;;;;;;37.00;19.13;;;3.10;99.90;;;;;;5053472;28;20104;-50
2024/03/08 04:18:08;;;;;;;31.88;18.33;;;3.10;99.90;;;;;;5053473;28;20110;-53
2024/03/08 04:20:34;;;;;;;35.22;19.00;;;3.10;99.90;;;;;;5052155;28;20105;-55
2024/03/08 04:23:00;;;;;;;32.55;19.77;;;3.10;99.90;;;;;;5051903;28;20520;-52
2024/03/08 04:25:26;;;;;;;29.42;18.17;;;3.00;99.90;;;;;;5051515;28;20078;-50
2024/03/08 04:27:52;;;;;;;33.60;19.67;;;2.90;99.90;;;;;;5051506;28;20086;-52
2024/03/08 04:30:17;;;;;;;37.83;19.17;;;3.00;99.90;;;;;;5054071;28;20408;-59
2024/03/08 04:32:43;;;;;;;33.28;20.20;;;2.90;99.90;;;;;;5054329;28;20524;-58
2024/03/08 04:35:09;;;;;;;34.60;19.48;;;2.80;99.90;;;;;;5054546;28;20075;-59
2024/03/08 04:37:34;;;;;;;32.20;18.70;;;2.80;99.90;;;;;;5054200;28;20029;-59
2024/03/08 04:40:00;;;;;;;34.22;19.48;;;2.70;99.90;;;;;;5053932;28;20025;-59
2024/03/08 04:42:28;;;;;;;31.23;18.40;;;2.60;99.90;;;;;;5054713;28;20025;-59
2024/03/08 04:44:54;;;;;;;36.03;19.17;;;2.60;99.90;;;;;;5051943;28;20078;-54
2024/03/08 04:47:20;;;;;;;39.78;22.02;;;2.60;99.90;;;;;;5052881;28;20029;-57
2024/03/08 04:49:46;;;;;;;33.53;19.17;;;2.50;99.90;;;;;;5052676;28;20593;-53
2024/03/08 04:52:12;;;;;;;31.70;18.73;;;2.50;99.90;;;;;;5052950;28;20071;-54
2024/03/08 04:54:37;;;;;;;31.75;19.27;;;2.50;99.90;;;;;;5051665;28;20033;-52
2024/03/08 04:57:04;;;;;;;34.88;19.00;;;2.40;99.90;;;;;;5052660;28;20100;-52
2024/03/08 04:59:30;;;;;;;32.75;19.10;;;2.40;99.90;;;;;;5051383;28;20032;-57
2024/03/08 05:01:56;;;;;;;35.08;19.85;;;2.40;99.90;;;;;;5052400;28;20512;-53
2024/03/08 05:04:22;;;;;;;43.15;19.67;;;2.40;99.90;;;;;;5051165;28;20385;-56
2024/03/08 05:06:48;;;;;;;33.38;19.45;;;2.40;99.90;;;;;;5052359;28;20074;-54
2024/03/08 05:09:13;;;;;;;35.10;20.42;;;2.40;99.90;;;;;;5052363;28;20024;-52
2024/03/08 05:11:46;;;;;;;32.38;20.58;;;2.40;99.90;;;;;;5052528;28;20029;-53
2024/03/08 05:14:19;;;;;;;37.95;20.30;;;2.50;99.90;;;;;;5052240;28;20025;-53
2024/03/08 05:16:48;;;;;;;35.25;18.55;;;2.50;99.90;;;;;;5052201;28;20032;-58
2024/03/08 05:19:18;;;;;;;37.40;19.75;;;2.40;99.90;;;;;;5052473;28;20393;-55
2024/03/08 05:21:48;;;;;;;32.85;18.95;;;2.50;99.90;;;;;;5051247;28;20033;-55
2024/03/08 05:24:17;;;;;;;41.03;19.27;;;2.50;99.90;;;;;;5052051;28;20486;-55
2024/03/08 05:26:42;;;;;;;31.73;18.38;;;2.60;99.90;;;;;;5052098;28;20032;-56
2024/03/08 05:29:12;;;;;;;37.65;19.50;;;2.60;99.90;;;;;;5051774;28;20029;-55
2024/03/08 05:31:54;;;;;;;34.47;19.73;;;2.60;99.90;;;;;;5052589;28;20017;-55
2024/03/08 05:34:21;;;;;;;35.33;21.77;;;2.50;99.90;;;;;;5051411;28;20040;-52
2024/03/08 05:36:49;;;;;;;32.55;19.48;;;2.60;99.90;;;;;;5051340;28;20437;-55
2024/03/08 05:39:15;;;;;;;36.13;20.70;;;2.50;99.90;;;;;;5051491;28;20020;-54
2024/03/08 05:41:41;;;;;;;40.65;20.35;;;2.40;99.90;;;;;;5051977;28;20036;-55
2024/03/08 05:44:07;;;;;;;36.03;19.08;;;2.40;99.90;;;;;;5051601;28;20075;-55
2024/03/08 05:46:33;;;;;;;34.88;20.45;;;2.40;99.90;;;;;;5051764;28;20024;-55
2024/03/08 05:48:59;;;;;;;35.67;20.98;;;2.40;99.90;;;;;;5051601;28;20088;-53
2024/03/08 05:51:27;;;;;;;36.40;21.42;;;2.40;99.90;;;;;;5051766;28;20025;-52
2024/03/08 05:53:53;;;;;;;37.15;20.63;;;2.30;99.90;;;;;;5051475;28;20029;-53
2024/03/08 05:56:19;;;;;;;38.50;20.77;;;2.20;99.90;;;;;;5050317;28;20021;-55
2024/03/08 05:58:45;;;;;;;32.28;19.35;;;2.20;99.90;;;;;;5051621;28;20074;-56
2024/03/08 06:01:12;;;;;;;36.63;20.27;;;2.30;99.90;;;;;;5051781;28;20056;-57
2024/03/08 06:03:44;;;;;;;35.28;20.95;;;2.30;99.90;;;;;;5051118;28;20483;-58
2024/03/08 06:06:13;;;;;;;35.10;18.67;;;2.30;99.90;;;;;;5051540;28;20037;-58
2024/03/08 06:08:38;;;;;;;33.72;20.85;;;2.30;99.90;;;;;;5051428;28;20032;-57
2024/03/08 06:11:05;;;;;;;35.00;21.00;;;2.30;99.90;;;;;;5051606;28;20033;-56
2024/03/08 06:13:31;;;;;;;42.60;19.45;;;2.30;99.90;;;;;;5051377;28;20081;-55
2024/03/08 06:15:57;;;;;;;42.80;21.80;;;2.20;99.90;;;;;;5051308;28;20029;-55
2024/03/08 06:18:22;;;;;;;41.00;21.33;;;2.20;99.90;;;;;;5051237;28;20020;-53
2024/03/08 06:20:48;;;;;;;35.15;20.10;;;2.30;99.90;;;;;;5051321;28;20033;-56
2024/03/08 06:23:17;;;;;;;35.78;20.65;;;2.30;99.90;;;;;;5049946;28;20024;-54
2024/03/08 06:25:46;;;;;;;35.50;20.98;;;2.40;99.90;;;;;;5051841;28;20311;-52
2024/03/08 06:28:11;;;;;;;42.13;21.55;;;2.40;99.90;;;;;;5051298;28;20103;-56
2024/03/08 06:30:37;;;;;;;33.42;20.50;;;2.40;99.90;;;;;;5050026;28;20246;-56
2024/03/08 06:33:02;;;;;;;45.97;21.40;;;2.60;99.90;;;;;;5051115;28;20091;-54
2024/03/08 06:35:28;;;;;;;37.17;20.92;;;2.80;99.90;;;;;;5049794;28;20021;-53
2024/03/08 06:37:54;;;;;;;37.58;21.08;;;2.90;99.90;;;;;;5050887;28;20108;-57
2024/03/08 06:40:19;;;;;;;32.50;20.70;;;3.10;99.90;;;;;;5050089;23;20136;-47
2024/03/08 06:42:45;;;;;;;33.83;20.42;;;3.20;99.90;;;;;;5029949;28;20032;-48
2024/03/08 06:45:12;;;;;;;32.20;19.42;;;3.30;99.90;;;;;;5031366;28;20109;-46
2024/03/08 06:47:37;;;;;;;37.60;20.77;;;3.50;99.90;;;;;;5032457;28;20025;-47
2024/03/08 06:50:04;;;;;;;36.65;19.88;;;3.60;99.90;;;;;;5035174;28;20028;-47
2024/03/08 06:52:29;;;;;;;33.75;20.45;;;3.70;99.90;;;;;;5035567;28;20435;-46
2024/03/08 06:54:55;;;;;;;33.47;19.83;;;3.80;99.90;;;;;;5035532;28;20083;-45
2024/03/08 06:57:22;;;;;;;32.47;18.95;;;4.00;99.90;;;;;;5035138;28;20049;-50
2024/03/08 06:59:48;;;;;;;31.75;20.98;;;4.30;99.90;;;;;;5035012;28;20056;-46
2024/03/08 07:02:14;;;;;;;32.03;18.48;;;4.50;99.90;;;;;;5035267;28;20259;-47
2024/03/08 07:04:39;;;;;;;31.58;19.70;;;4.50;99.90;;;;;;5035083;28;20033;-47
2024/03/08 07:07:09;;;;;;;33.60;19.55;;;4.60;99.90;;;;;;5034993;28;20151;-49
2024/03/08 07:09:35;;;;;;;29.42;19.38;;;4.70;99.90;;;;;;5034520;28;20024;-51
2024/03/08 07:12:01;;;;;;;31.98;19.27;;;4.70;99.90;;;;;;5034623;28;20447;-50
2024/03/08 07:14:27;;;;;;;31.25;19.17;;;4.80;99.90;;;;;;5034975;28;20017;-47
2024/03/08 07:16:52;;;;;;;29.00;18.17;;;4.80;99.90;;;;;;5034777;28;20022;-47
2024/03/08 07:19:19;;;;;;;37.55;19.40;;;5.50;99.90;;;;;;5034553;28;20427;-49
2024/03/08 07:21:45;;;;;;;33.92;20.15;;;5.70;99.90;;;;;;5034862;28;20022;-47
2024/03/08 07:26:43;;;;;;;33.63;20.15;;;6.00;99.90;;;;;;5034752;28;20026;-46
2024/03/08 07:29:09;;;;;;;30.30;19.73;;;6.00;99.90;;;;;;5034545;28;20445;-49
2024/03/08 07:34:03;;;;;;;34.40;19.25;;;5.90;99.90;;;;;;5034788;28;20550;-48
2024/03/08 07:36:28;;;;;;;32.67;19.75;;;5.90;99.90;;;;;;5034691;28;20488;-48
2024/03/08 07:38:54;;;;;;;31.85;18.40;;;6.10;99.90;;;;;;5034306;28;20088;-44
2024/03/08 07:41:20;;;;;;;37.70;19.50;;;6.10;99.90;;;;;;5034295;28;20029;-50
2024/03/08 07:43:45;;;;;;;39.00;19.92;;;6.50;99.90;;;;;;5033978;28;20159;-46
2024/03/08 07:46:12;;;;;;;30.25;17.88;;;6.60;99.90;;;;;;5034308;28;20025;-47
2024/03/08 07:48:39;;;;;;;31.35;21.00;;;6.50;99.90;;;;;;5034032;28;20018;-47
2024/03/08 07:51:05;;;;;;;32.47;20.48;;;6.00;99.90;;;;;;5034422;28;20013;-47
2024/03/08 07:53:31;;;;;;;30.15;20.48;;;5.50;99.90;;;;;;5034472;28;20033;-49
2024/03/08 07:55:56;;;;;;;29.50;19.38;;;5.20;99.90;;;;;;5034272;28;20037;-49
2024/03/08 07:58:23;;;;;;;38.05;21.73;;;4.90;99.90;;;;;;5033914;28;20065;-47
2024/03/08 08:00:49;;;;;;;33.47;20.15;;;4.70;99.90;;;;;;5033056;28;20560;-47
2024/03/08 08:03:15;;;;;;;39.08;22.83;;;4.60;99.90;;;;;;5034063;28;20129;-49
2024/03/08 08:05:41;;;;;;;37.03;21.33;;;4.50;99.90;;;;;;5032827;28;20072;-45
2024/03/08 08:08:10;;;;;;;37.42;20.30;;;4.50;99.90;;;;;;5033905;28;20029;-48
2024/03/08 08:10:37;;;;;;;40.15;21.50;;;4.60;99.90;;;;;;5034048;28;20081;-47
2024/03/08 08:13:04;;;;;;;30.77;19.23;;;4.50;99.90;;;;;;5032293;28;20032;-44
2024/03/08 08:15:30;;;;;;;38.17;22.20;;;4.50;99.90;;;;;;5033768;28;20091;-45
2024/03/08 08:17:55;;;;;;;38.85;20.10;;;4.40;99.90;;;;;;5033681;28;20018;-48
2024/03/08 08:20:21;;;;;;;32.30;20.35;;;4.50;99.90;;;;;;5033633;28;20022;-43
2024/03/08 08:22:48;;;;;;;35.60;20.20;;;4.60;99.90;;;;;;5033774;28;20568;-45
2024/03/08 08:25:15;;;;;;;40.28;21.10;;;4.50;99.90;;;;;;5032276;28;20112;-52
2024/03/08 08:27:42;;;;;;;31.60;19.15;;;4.60;99.90;;;;;;5033622;28;20022;-48
2024/03/08 08:30:08;;;;;;;27.63;18.55;;;4.60;99.90;;;;;;5033279;28;20026;-49
2024/03/08 08:32:36;;;;;;;34.63;19.27;;;4.60;99.90;;;;;;5033414;28;20511;-50
2024/03/08 08:35:04;;;;;;;35.70;20.45;;;4.60;99.90;;;;;;5033400;28;20048;-46
2024/03/08 08:37:31;;;;;;;34.60;20.17;;;4.70;99.90;;;;;;5032265;28;20037;-45
2024/03/08 08:39:57;;;;;;;34.13;20.20;;;4.80;99.90;;;;;;5032786;28;20040;-46
2024/03/08 08:42:23;;;;;;;29.80;18.80;;;4.80;99.90;;;;;;5033257;28;20147;-45
2024/03/08 08:44:50;;;;;;;29.92;19.55;;;4.90;99.90;;;;;;5031843;28;20124;-52
2024/03/08 08:47:18;;;;;;;33.38;20.33;;;4.90;99.90;;;;;;5031501;28;20504;-47
2024/03/08 08:49:46;;;;;;;35.90;20.10;;;5.00;99.90;;;;;;5032829;28;20014;-46
2024/03/08 08:52:11;;;;;;;31.45;18.95;;;5.10;99.90;;;;;;5033021;28;20481;-47
2024/03/08 08:54:37;;;;;;;42.45;20.13;;;5.30;99.90;;;;;;5033358;28;20087;-49
2024/03/08 08:57:07;;;;;;;37.00;19.40;;;5.30;99.90;;;;;;5033130;28;20033;-47
2024/03/08 08:59:35;;;;;;;34.38;19.13;;;5.40;99.90;;;;;;5032725;28;20075;-54
2024/03/08 09:02:01;;;;;;;33.08;19.40;;;5.40;99.90;;;;;;5031609;28;20022;-49
2024/03/08 09:04:27;;;;;;;36.70;19.13;;;5.50;99.90;;;;;;5032804;28;20041;-54
2024/03/08 09:06:53;;;;;;;33.25;18.83;;;5.50;99.90;;;;;;5033396;28;20077;-47
2024/03/08 09:09:19;;;;;;;33.33;17.58;;;5.60;99.90;;;;;;5031349;28;20057;-54
2024/03/08 09:11:46;;;;;;;33.25;18.70;;;5.60;99.90;;;;;;5040526;28;20018;-47
2024/03/08 09:14:11;;;;;;;27.25;16.25;;;5.70;99.90;;;;;;5032203;28;20087;-48
2024/03/08 09:16:37;;;;;;;28.88;17.27;;;5.80;99.90;;;;;;5033095;28;20022;-51
2024/03/08 09:19:03;;;;;;;27.15;16.80;;;5.90;99.90;;;;;;5032865;28;20051;-44
2024/03/08 09:21:28;;;;;;;32.25;18.00;;;6.10;99.90;;;;;;5033046;28;20030;-46
2024/03/08 09:23:54;;;;;;;25.45;15.70;;;6.90;99.90;;;;;;5032084;28;20101;-48
2024/03/08 09:26:19;;;;;;;25.42;15.93;;;7.70;99.90;;;;;;5032679;28;20021;-46
2024/03/08 09:28:46;;;;;;;25.38;16.40;;;;;;;;;;5032416;28;20033;-47
2024/03/08 09:31:12;;;;;;;22.63;14.75;;;8.50;99.90;;;;;;5029975;28;20025;-47
2024/03/08 09:33:39;;;;;;;29.63;16.25;;;9.30;99.90;;;;;;5032558;28;20550;-47
2024/03/08 09:36:07;;;;;;;25.63;16.73;;;;;;;;;;5030700;28;20040;-47
2024/03/08 09:38:34;;;;;;;25.50;16.52;;;9.30;99.90;;;;;;5032116;28;20453;-47
2024/03/08 09:41:01;;;;;;;23.77;15.90;;;;;;;;;;5032426;28;20124;-46
2024/03/08 09:43:28;;;;;;;22.08;14.27;;;10.10;99.60;;;;;;5033394;28;20037;-48
2024/03/08 09:45:55;;;;;;;25.67;16.75;;;10.10;99.80;;;;;;5032849;28;20041;-52
2024/03/08 09:48:21;;;;;;;23.90;16.15;;;9.70;99.80;;;;;;5032712;28;20123;-51
2024/03/08 09:50:48;;;;;;;21.70;15.63;;;9.80;99.60;;;;;;5033091;28;20033;-47
2024/03/08 09:53:13;;;;;;;25.73;16.52;;;10.10;99.30;;;;;;5033111;28;20025;-48
2024/03/08 09:55:44;;;;;;;21.48;14.65;;;10.00;98.80;;;;;;5032862;28;20026;-47
2024/03/08 09:58:42;;;;;;;23.75;15.15;;;9.90;98.90;;;;;;5032712;28;20396;-49
2024/03/08 10:01:07;;;;;;;27.67;15.73;;;9.50;99.60;;;;;;5033099;28;20029;-47
2024/03/08 10:03:33;;;;;;;25.60;15.57;;;9.30;99.80;;;;;;5032668;28;20547;-50
2024/03/08 10:06:00;;;;;;;25.15;15.80;;;9.20;99.90;;;;;;5033313;28;20071;-47
2024/03/08 10:08:29;;;;;;;23.75;15.88;;;9.30;99.90;;;;;;5032850;28;20049;-50
2024/03/08 10:10:55;;;;;;;23.77;16.20;;;9.20;99.90;;;;;;5032800;28;20021;-47
2024/03/08 10:13:20;;;;;;;26.33;16.40;;;9.30;99.90;;;;;;5031580;28;20037;-48
2024/03/08 10:15:46;;;;;;;22.77;15.65;;;9.30;99.90;;;;;;5032958;28;20056;-48
2024/03/08 10:18:12;;;;;;;22.77;16.17;;;9.60;99.90;;;;;;5032174;28;20041;-48
2024/03/08 10:20:37;;;;;;;23.55;15.48;;;9.70;99.90;;;;;;5031805;28;20034;-49
2024/03/08 10:23:05;;;;;;;26.00;14.95;;;9.80;99.50;;;;;;5030859;28;20543;-49
2024/03/08 10:25:34;;;;;;;26.58;16.02;;;9.70;99.50;;;;;;5030462;28;20021;-52
2024/03/08 10:28:04;;;;;;;23.60;15.85;;;9.70;99.60;;;;;;5030843;28;20057;-53
2024/03/08 10:30:29;;;;;;;22.17;15.30;;;9.70;99.90;;;;;;5046920;28;20514;-50
2024/03/08 10:32:55;;;;;;;23.50;14.93;;;9.50;99.60;;;;;;5034200;28;20100;-50
2024/03/08 10:35:20;;;;;;;31.38;17.50;;;9.10;99.90;;;;;;5037609;28;20040;-50
2024/03/08 10:37:58;;;;;;;24.23;14.60;;;9.10;99.90;;;;;;5031255;28;20400;-54
2024/03/08 10:40:25;;;;;;;24.25;16.00;;;8.80;99.90;;;;;;5029585;28;20037;-48
2024/03/08 10:42:54;;;;;;;30.33;17.60;;;8.90;99.90;;;;;;5031135;28;20040;-49
2024/03/08 10:45:37;;;;;;;23.23;15.85;;;9.10;99.90;;;;;;5031150;28;20040;-47
2024/03/08 10:48:24;;;;;;;23.10;15.32;;;9.30;99.90;;;;;;5031379;28;20632;-49
2024/03/08 10:50:52;;;;;;;28.02;16.13;;;9.20;99.90;;;;;;5038089;28;20395;-51
2024/03/08 10:53:18;;;;;;;25.55;16.17;;;9.20;99.90;;;;;;5050193;28;20435;-48
2024/03/08 10:55:46;;;;;;;22.98;15.18;;;9.20;99.90;;;;;;5032385;28;20025;-47
2024/03/08 10:58:11;;;;;;;29.42;16.17;;;9.30;99.90;;;;;;5030948;28;20504;-48
2024/03/08 11:00:37;;;;;;;24.83;16.10;;;9.20;99.90;;;;;;5033421;28;20056;-46
2024/03/08 11:03:04;;;;;;;25.20;15.60;;;9.00;99.90;;;;;;5023950;28;20173;-49
2024/03/08 11:05:40;;;;;;;23.95;15.80;;;9.10;99.90;;;;;;5027893;28;20099;-52
2024/03/08 11:08:19;;;;;;;24.05;16.60;;;9.00;99.90;;;;;;5023076;28;20022;-49
2024/03/08 11:10:55;;;;;;;25.90;16.05;;;8.90;99.90;;;;;;5028066;28;20097;-48
2024/03/08 11:13:40;;;;;;;35.75;23.75;;;8.80;99.90;;;;;;5030848;28;20057;-49
2024/03/08 11:16:32;;;;;;;41.28;23.55;;;8.90;99.90;;;;;;5030930;28;20087;-49
2024/03/08 11:19:19;;;;;;;25.95;16.48;;;8.80;99.90;;;;;;5032680;28;20045;-46
2024/03/08 11:21:44;;;;;;;26.67;15.68;;;8.90;99.90;;;;;;5019731;28;20102;-49
2024/03/08 11:24:14;;;;;;;25.65;17.23;;;9.00;99.90;;;;;;5038213;28;20488;-53
2024/03/08 11:26:46;;;;;;;27.10;17.48;;;8.90;99.90;;;;;;5034734;28;20044;-48
2024/03/08 11:29:27;;;;;;;27.88;17.23;;;9.00;99.90;;;;;;5028829;28;20111;-49
2024/03/08 11:32:03;;;;;;;23.45;16.73;;;9.10;99.90;;;;;;5033871;28;20022;-48
2024/03/08 11:34:30;;;;;;;25.27;16.65;;;9.20;99.90;;;;;;5031897;28;20080;-49
2024/03/08 11:36:56;;;;;;;23.92;15.65;;;9.30;99.90;;;;;;5027660;28;20029;-51
2024/03/08 11:39:23;;;;;;;25.27;16.08;;;9.30;99.90;;;;;;5023283;28;20034;-48
2024/03/08 11:41:49;;;;;;;27.30;16.52;;;9.20;99.90;;;;;;5041919;28;20079;-47
2024/03/08 11:44:16;;;;;;;27.33;16.45;;;9.20;99.90;;;;;;5032199;28;20481;-47
2024/03/08 11:46:46;;;;;;;28.23;16.92;;;9.20;99.90;;;;;;5034366;28;20108;-46
2024/03/08 11:49:12;;;;;;;25.88;16.70;;;9.20;99.90;;;;;;5033278;28;20071;-46
2024/03/08 11:51:38;;;;;;;25.25;16.65;;;9.20;99.90;;;;;;5034683;28;20117;-49
2024/03/08 11:54:06;;;;;;;29.15;15.98;;;9.20;99.90;;;;;;5032522;28;20024;-47
2024/03/08 11:56:32;;;;;;;24.02;15.23;;;9.20;99.90;;;;;;5032812;28;20029;-50
2024/03/08 11:58:58;;;;;;;23.35;16.75;;;9.30;99.90;;;;;;5031260;28;20393;-53
2024/03/08 12:01:24;;;;;;;25.83;15.55;;;9.30;99.90;;;;;;5032273;28;20032;-55
2024/03/08 12:03:58;;;;;;;23.80;15.98;;;9.20;99.90;;;;;;5032560;28;20045;-53
2024/03/08 12:06:25;;;;;;;22.53;15.13;;;9.30;99.90;;;;;;5033292;28;20037;-45
2024/03/08 12:08:51;;;;;;;21.63;14.88;;;9.20;99.90;;;;;;5034004;28;20105;-46
2024/03/08 12:11:25;;;;;;;23.83;15.45;;;9.20;99.90;;;;;;5033793;28;20544;-47
2024/03/08 12:13:51;;;;;;;31.13;14.57;;;9.20;99.90;;;;;;5034207;28;20025;-44
2024/03/08 12:16:17;;;;;;;22.05;15.15;;;9.30;99.90;;;;;;5032535;28;20057;-52
2024/03/08 12:18:44;;;;;;;26.35;15.65;;;9.30;99.90;;;;;;5032386;28;20033;-49
2024/03/08 12:21:13;;;;;;;26.48;14.68;;;9.30;99.90;;;;;;5042554;28;20033;-49
2024/03/08 12:23:39;;;;;;;22.77;15.10;;;9.20;99.90;;;;;;5032355;28;20039;-48
2024/03/08 12:26:16;;;;;;;24.48;16.02;;;9.10;99.90;;;;;;5033525;28;20028;-46
2024/03/08 12:28:45;;;;;;;21.88;15.77;;;9.20;99.90;;;;;;5032882;28;20071;-48
2024/03/08 12:31:21;;;;;;;22.38;14.68;;;9.20;99.90;;;;;;5033110;28;20124;-45
2024/03/08 12:33:54;;;;;;;27.17;15.32;;;9.20;99.90;;;;;;5033424;28;20030;-45
2024/03/08 12:36:20;;;;;;;22.92;16.20;;;9.20;99.90;;;;;;5032207;28;20584;-48
2024/03/08 12:38:47;;;;;;;23.10;15.00;;;9.20;99.90;;;;;;5032588;28;20432;-49
2024/03/08 12:41:20;;;;;;;27.17;16.30;;;9.30;99.90;;;;;;5032795;28;20033;-50
2024/03/08 12:43:48;;;;;;;24.38;16.48;;;9.40;99.90;;;;;;5033503;28;20025;-53